Terminal Aerodrome Forecast
Issued by NWS Paducah, KY

Home | Current Version | Previous Version | Text Only | Print | Product List | Glossary On
Versions: 1 2 3 4 5 6 7 8 9 10 11 12 13 14 15 16 17 18 19 20 21 22 23 24 25 26
000
FTUS43 KPAH 071139
TAFPAH
TAF
KPAH 071139Z 0712/0812 20009KT P6SM SCT015 BKN200
      TEMPO 0712/0715 BKN015
     FM071800 22010KT P6SM VCTS SCT020CB BKN040
      TEMPO 0721/0801 3SM TSRA OVC020CB
     FM080700 VRB03KT 4SM BR BKN008=

USA.gov is the U.S. government's official web portal to all federal, state and local government web resources and services.